createdAt,value
2018-02-18T00:00:29.451Z,40.30
2018-02-18T00:02:57.039Z,37.90
2018-02-18T00:05:25.386Z,34.85
2018-02-18T00:07:52.971Z,38.67
2018-02-18T00:10:20.564Z,42.00
2018-02-18T00:12:48.174Z,40.78
2018-02-18T00:15:15.777Z,38.92
2018-02-18T00:17:44.127Z,43.78
2018-02-18T00:20:12.471Z,43.00
2018-02-18T00:22:40.071Z,41.58
2018-02-18T00:25:07.654Z,42.47
2018-02-18T00:27:35.244Z,41.03
2018-02-18T00:30:03.626Z,39.20
2018-02-18T00:32:31.972Z,44.42
2018-02-18T00:34:59.550Z,46.60
2018-02-18T00:37:27.135Z,43.13
2018-02-18T00:39:55.498Z,44.13
2018-02-18T00:42:23.103Z,37.72
2018-02-18T00:44:50.681Z,44.90
2018-02-18T00:47:18.279Z,41.55
2018-02-18T00:49:45.878Z,40.05
2018-02-18T00:52:14.246Z,54.70
2018-02-18T00:54:42.595Z,41.58
2018-02-18T00:57:10.949Z,53.60
2018-02-18T00:59:38.537Z,40.92
2018-02-18T01:02:06.123Z,36.60
2018-02-18T01:04:33.702Z,45.63
2018-02-18T01:07:01.287Z,42.25
2018-02-18T01:09:28.876Z,45.75
2018-02-18T01:11:56.467Z,45.97
2018-02-18T01:14:24.107Z,47.33
2018-02-18T01:16:51.687Z,40.58
2018-02-18T01:19:19.280Z,58.83
2018-02-18T01:21:46.863Z,55.90
2018-02-18T01:24:15.211Z,69.70
2018-02-18T01:26:42.791Z,60.00
2018-02-18T01:29:10.379Z,54.03
2018-02-18T01:31:38.736Z,64.35
2018-02-18T01:34:06.322Z,68.75
2018-02-18T01:36:34.671Z,84.37
2018-02-18T01:39:02.258Z,75.00
2018-02-18T01:41:29.846Z,80.78
2018-02-18T01:43:58.200Z,66.95
2018-02-18T01:46:25.791Z,64.32
2018-02-18T01:48:54.134Z,68.22
2018-02-18T01:51:21.716Z,87.93
2018-02-18T01:53:49.304Z,76.95
2018-02-18T01:56:16.893Z,78.45
2018-02-18T01:58:44.475Z,75.32
2018-02-18T02:01:12.059Z,89.80
2018-02-18T02:03:39.658Z,89.65
2018-02-18T02:06:08.003Z,86.65
2018-02-18T02:08:35.595Z,93.53
2018-02-18T02:11:03.946Z,84.97
2018-02-18T02:13:31.526Z,68.40
2018-02-18T02:15:59.122Z,66.57
2018-02-18T02:18:27.466Z,74.03
2018-02-18T02:20:55.050Z,69.55
2018-02-18T02:23:23.443Z,71.45
2018-02-18T02:25:51.788Z,75.50
2018-02-18T02:28:19.379Z,56.33
2018-02-18T02:30:47.003Z,55.80
2018-02-18T02:33:14.584Z,46.90
2018-02-18T02:35:42.175Z,57.35
2018-02-18T02:38:10.540Z,55.50
2018-02-18T02:40:38.127Z,53.05
2018-02-18T02:43:06.471Z,37.33
2018-02-18T02:45:34.055Z,59.63
2018-02-18T02:48:01.643Z,35.30
2018-02-18T02:50:29.996Z,40.72
2018-02-18T02:52:57.582Z,42.33
2018-02-18T02:55:25.931Z,37.10
2018-02-18T02:57:53.523Z,33.47
2018-02-18T03:00:21.147Z,36.10
2018-02-18T03:02:48.731Z,43.63
2018-02-18T03:05:16.318Z,51.15
2018-02-18T03:07:43.903Z,40.60
2018-02-18T03:10:12.247Z,38.70
2018-02-18T03:12:39.831Z,38.70
2018-02-18T03:15:07.411Z,30.45
2018-02-18T03:17:35.754Z,43.42
2018-02-18T03:20:03.359Z,42.28
2018-02-18T03:22:31.711Z,35.83
2018-02-18T03:24:59.298Z,37.63
2018-02-18T03:27:27.642Z,35.60
2018-02-18T03:29:55.226Z,37.80
2018-02-18T03:32:22.814Z,32.40
2018-02-18T03:34:51.169Z,32.85
2018-02-18T03:37:18.752Z,36.80
2018-02-18T03:39:47.098Z,34.67
2018-02-18T03:42:14.675Z,29.83
2018-02-18T03:44:42.313Z,24.83
2018-02-18T03:47:09.899Z,30.45
2018-02-18T03:49:37.483Z,24.27
2018-02-18T03:52:05.091Z,30.73
2018-02-18T03:54:32.687Z,25.58
2018-02-18T03:57:00.267Z,24.10
2018-02-18T03:59:27.856Z,27.77
2018-02-18T04:01:56.223Z,25.52
2018-02-18T04:04:23.810Z,26.12
2018-02-18T04:06:52.159Z,27.08
2018-02-18T04:09:19.746Z,32.60
2018-02-18T04:11:48.094Z,22.00
2018-02-18T04:14:15.730Z,27.87
2018-02-18T04:16:43.311Z,19.73
2018-02-18T04:19:10.892Z,24.45
2018-02-18T04:21:38.480Z,22.48
2018-02-18T04:24:06.073Z,23.27
2018-02-18T04:26:33.679Z,25.73
2018-02-18T04:29:01.258Z,22.95
2018-02-18T04:31:28.838Z,20.85
2018-02-18T04:33:56.419Z,25.17
2018-02-18T04:36:24.774Z,26.27
2018-02-18T04:38:52.359Z,28.17
2018-02-18T04:41:20.706Z,20.88
2018-02-18T04:43:48.291Z,26.58
2018-02-18T04:46:15.878Z,21.42
2018-02-18T04:48:44.230Z,21.58
2018-02-18T04:51:11.822Z,21.02
2018-02-18T04:53:40.174Z,18.50
2018-02-18T04:56:08.654Z,24.65
2018-02-18T04:58:36.236Z,27.13
2018-02-18T05:01:03.823Z,29.85
2018-02-18T05:03:32.171Z,22.87
2018-02-18T05:05:59.751Z,24.90
2018-02-18T05:08:27.390Z,28.40
2018-02-18T05:10:54.968Z,18.65
2018-02-18T05:13:22.559Z,23.95
2018-02-18T05:15:50.906Z,29.52
2018-02-18T05:18:18.495Z,27.95
2018-02-18T05:20:46.087Z,24.40
2018-02-18T05:23:13.676Z,26.17
2018-02-18T05:25:41.265Z,20.35
2018-02-18T05:28:08.850Z,24.73
2018-02-18T05:30:36.439Z,26.42
2018-02-18T05:33:04.787Z,28.90
2018-02-18T05:35:32.375Z,29.90
2018-02-18T05:38:00.726Z,25.90
2018-02-18T05:40:28.323Z,24.30
2018-02-18T05:42:56.678Z,22.60
2018-02-18T05:45:24.273Z,21.50
2018-02-18T05:47:52.617Z,22.95
2018-02-18T05:50:20.199Z,21.98
2018-02-18T05:52:47.779Z,20.77
2018-02-18T05:55:15.359Z,18.52
2018-02-18T05:57:42.949Z,23.30
2018-02-18T06:00:10.543Z,20.90
2018-02-18T06:02:38.132Z,22.35
2018-02-18T06:05:05.719Z,26.17
2018-02-18T06:07:33.346Z,19.77
2018-02-18T06:10:00.939Z,23.92
2018-02-18T06:12:29.892Z,24.73
2018-02-18T06:14:57.474Z,26.77
2018-02-18T06:17:25.070Z,23.20
2018-02-18T06:19:53.422Z,21.60
2018-02-18T06:22:21.006Z,22.42
2018-02-18T06:24:49.363Z,25.95
2018-02-18T06:27:17.008Z,23.42
2018-02-18T06:29:44.590Z,25.17
2018-02-18T06:32:12.179Z,26.30
2018-02-18T06:34:40.530Z,29.40
2018-02-18T06:37:08.119Z,26.87
2018-02-18T06:39:35.702Z,29.60
2018-02-18T06:42:04.103Z,27.23
2018-02-18T06:44:31.695Z,23.20
2018-02-18T06:46:59.282Z,36.83
2018-02-18T06:49:26.910Z,30.83
2018-02-18T06:51:54.499Z,29.75
2018-02-18T06:54:22.082Z,26.05
2018-02-18T06:56:49.695Z,20.58
2018-02-18T06:59:17.285Z,24.27
2018-02-18T07:01:44.980Z,27.02
2018-02-18T07:04:12.573Z,25.67
2018-02-18T07:06:40.973Z,28.75
2018-02-18T07:09:08.923Z,26.20
2018-02-18T07:11:36.539Z,31.25
2018-02-18T07:14:04.171Z,20.45
2018-02-18T07:16:31.762Z,27.30
2018-02-18T07:18:59.386Z,20.50
2018-02-18T07:21:27.733Z,28.30
2018-02-18T07:23:55.319Z,25.90
2018-02-18T07:26:22.908Z,24.75
2018-02-18T07:28:50.502Z,19.50
2018-02-18T07:31:18.092Z,24.85
2018-02-18T07:33:45.670Z,21.83
2018-02-18T07:36:13.254Z,25.33
2018-02-18T07:38:41.660Z,26.15
2018-02-18T07:41:09.242Z,26.77
2018-02-18T07:43:36.827Z,27.80
2018-02-18T07:46:04.412Z,23.52
2018-02-18T07:48:31.994Z,24.27
2018-02-18T07:51:00.391Z,38.83
2018-02-18T07:53:27.991Z,28.38
2018-02-18T07:55:55.575Z,21.17
2018-02-18T07:58:23.963Z,19.65
2018-02-18T08:00:51.551Z,29.75
2018-02-18T08:03:19.899Z,27.05
2018-02-18T08:05:47.487Z,32.60
2018-02-18T08:08:15.075Z,23.52
2018-02-18T08:10:43.422Z,32.60
2018-02-18T08:13:11.056Z,19.73
2018-02-18T08:15:38.643Z,25.95
2018-02-18T08:18:06.222Z,24.25
2018-02-18T08:20:33.811Z,31.37
2018-02-18T08:23:02.172Z,35.90
2018-02-18T08:25:29.762Z,28.48
2018-02-18T08:27:58.156Z,31.92
2018-02-18T08:30:25.734Z,29.90
2018-02-18T08:32:53.318Z,37.70
2018-02-18T08:35:20.899Z,28.70
2018-02-18T08:37:48.526Z,34.75
2018-02-18T08:40:16.112Z,32.05
2018-02-18T08:42:43.686Z,21.58
2018-02-18T08:45:12.034Z,27.75
2018-02-18T08:47:39.623Z,27.67
2018-02-18T08:50:07.219Z,24.90
2018-02-18T08:52:34.807Z,24.55
2018-02-18T08:55:03.158Z,23.60
2018-02-18T08:57:30.739Z,30.85
2018-02-18T08:59:58.340Z,20.75
2018-02-18T09:02:25.923Z,27.92
2018-02-18T09:04:53.511Z,20.35
2018-02-18T09:07:21.096Z,33.63
2018-02-18T09:09:48.675Z,18.58
2018-02-18T09:12:17.019Z,19.70
2018-02-18T09:14:44.604Z,21.55
2018-02-18T09:17:12.182Z,28.60
2018-02-18T09:19:40.532Z,32.03
2018-02-18T09:22:08.165Z,24.08
2018-02-18T09:24:35.792Z,27.42
2018-02-18T09:27:04.147Z,24.77
2018-02-18T09:29:31.727Z,23.52
2018-02-18T09:31:59.321Z,24.83
2018-02-18T09:34:27.673Z,22.67
2018-02-18T09:36:56.034Z,19.90
2018-02-18T09:39:23.622Z,21.00
2018-02-18T09:41:51.206Z,25.17
2018-02-18T09:44:19.563Z,17.50
2018-02-18T09:46:47.147Z,14.93
2018-02-18T09:49:15.496Z,18.70
2018-02-18T09:51:43.077Z,22.65
2018-02-18T09:54:10.654Z,19.25
2018-02-18T09:56:39.008Z,17.50
2018-02-18T09:59:06.593Z,14.95
2018-02-18T10:01:34.175Z,22.70
2018-02-18T10:04:02.523Z,17.62
2018-02-18T10:06:30.098Z,16.27
2018-02-18T10:08:57.739Z,13.43
2018-02-18T10:11:25.326Z,19.37
2018-02-18T10:13:52.904Z,16.05
2018-02-18T10:16:20.489Z,18.73
2018-02-18T10:18:48.830Z,15.60
2018-02-18T10:21:16.416Z,18.77
2018-02-18T10:23:44.003Z,18.70
2018-02-18T10:26:11.583Z,17.85
2018-02-18T10:28:39.170Z,20.85
2018-02-18T10:31:06.756Z,18.27
2018-02-18T10:33:34.343Z,11.65
2018-02-18T10:36:01.925Z,17.85
2018-02-18T10:38:30.727Z,17.33
2018-02-18T10:40:58.365Z,21.17
2018-02-18T10:43:26.711Z,20.00
2018-02-18T10:45:54.295Z,14.10
2018-02-18T10:48:21.875Z,15.95
2018-02-18T10:50:50.228Z,18.12
2018-02-18T10:53:17.806Z,14.45
2018-02-18T10:55:46.192Z,21.77
2018-02-18T10:58:13.781Z,19.00
2018-02-18T11:00:42.126Z,10.60
2018-02-18T11:03:09.702Z,21.12
2018-02-18T11:05:37.282Z,12.75
2018-02-18T11:08:05.630Z,10.80
2018-02-18T11:10:33.210Z,13.05
2018-02-18T11:13:00.792Z,20.12
2018-02-18T11:15:29.147Z,17.08
2018-02-18T11:17:57.498Z,19.60
2018-02-18T11:20:26.019Z,16.60
2018-02-18T11:22:53.598Z,21.90
2018-02-18T11:25:21.182Z,15.98
2018-02-18T11:27:49.528Z,17.37
2018-02-18T11:30:17.116Z,16.00
2018-02-18T11:32:44.699Z,12.05
2018-02-18T11:35:13.044Z,15.10
2018-02-18T11:37:40.632Z,13.88
2018-02-18T11:40:08.983Z,19.77
2018-02-18T11:42:36.563Z,13.00
2018-02-18T11:45:04.148Z,9.93
2018-02-18T11:47:32.491Z,11.12
2018-02-18T11:50:00.071Z,9.63
2018-02-18T11:52:27.650Z,12.13
2018-02-18T11:54:55.231Z,12.75
2018-02-18T11:57:23.576Z,13.40
2018-02-18T11:59:51.173Z,10.75
2018-02-18T12:02:19.519Z,16.17
2018-02-18T12:04:47.125Z,12.37
2018-02-18T12:07:15.478Z,16.30
2018-02-18T12:09:43.054Z,9.15
2018-02-18T12:12:10.635Z,14.13
2018-02-18T12:14:38.991Z,10.70
2018-02-18T12:17:06.592Z,15.25
2018-02-18T12:19:34.203Z,19.35
2018-02-18T12:22:01.784Z,12.43
2018-02-18T12:24:29.444Z,13.88
2018-02-18T12:26:57.068Z,10.82
2018-02-18T12:29:24.653Z,17.33
2018-02-18T12:31:52.971Z,13.75
2018-02-18T12:34:20.567Z,11.00
2018-02-18T12:36:48.149Z,9.40
2018-02-18T12:39:15.737Z,12.37
2018-02-18T12:41:43.320Z,9.90
2018-02-18T12:44:10.906Z,12.18
2018-02-18T12:46:39.251Z,8.25
2018-02-18T12:49:06.879Z,8.48
2018-02-18T12:51:34.484Z,8.00
2018-02-18T12:54:02.080Z,13.45
2018-02-18T12:56:30.427Z,8.18
2018-02-18T12:58:58.046Z,8.30
2018-02-18T13:01:25.624Z,10.20
2018-02-18T13:03:53.220Z,8.93
2018-02-18T13:06:20.795Z,8.30
2018-02-18T13:08:48.377Z,9.80
2018-02-18T13:11:15.960Z,9.82
2018-02-18T13:13:44.302Z,12.25
2018-02-18T13:16:11.882Z,17.37
2018-02-18T13:18:39.475Z,38.83
2018-02-18T13:21:07.082Z,11.68
2018-02-18T13:23:34.658Z,9.38
2018-02-18T13:26:02.283Z,11.77
2018-02-18T13:28:29.864Z,9.05
2018-02-18T13:30:57.455Z,16.50
2018-02-18T13:33:25.038Z,14.85
2018-02-18T13:35:52.615Z,17.85
2018-02-18T13:38:20.982Z,13.68
2018-02-18T13:40:48.607Z,11.00
2018-02-18T13:43:16.190Z,12.10
2018-02-18T13:45:43.772Z,10.07
2018-02-18T13:48:11.350Z,10.05
2018-02-18T13:50:39.962Z,8.32
2018-02-18T13:53:08.354Z,10.18
2018-02-18T13:55:36.726Z,11.15
2018-02-18T13:58:05.070Z,9.60
2018-02-18T14:00:32.655Z,18.73
2018-02-18T14:03:00.997Z,9.05
2018-02-18T14:05:28.583Z,12.07
2018-02-18T14:07:56.163Z,10.77
2018-02-18T14:10:23.747Z,9.93
2018-02-18T14:12:52.099Z,17.05
2018-02-18T14:15:19.683Z,10.15
2018-02-18T14:17:48.061Z,13.68
2018-02-18T14:20:16.406Z,13.88
2018-02-18T14:22:43.987Z,10.23
2018-02-18T14:25:11.587Z,13.07
2018-02-18T14:27:39.930Z,7.30
2018-02-18T14:30:07.511Z,9.90
2018-02-18T14:32:35.098Z,12.73
2018-02-18T14:35:03.519Z,9.27
2018-02-18T14:37:31.099Z,11.50
2018-02-18T14:39:58.679Z,9.10
2018-02-18T14:42:38.091Z,11.90
2018-02-18T14:45:17.606Z,10.07
2018-02-18T14:47:56.974Z,8.93
2018-02-18T14:53:37.699Z,8.55
2018-02-18T14:59:05.031Z,11.25
2018-02-18T15:01:32.611Z,13.00
2018-02-18T15:04:00.953Z,9.98
2018-02-18T15:06:28.527Z,9.15
2018-02-18T15:08:56.103Z,12.68
2018-02-18T15:11:23.680Z,8.68
2018-02-18T15:13:52.023Z,10.60
2018-02-18T15:16:19.598Z,10.93
2018-02-18T15:18:47.177Z,7.82
2018-02-18T15:21:14.756Z,7.10
2018-02-18T15:23:43.099Z,9.02
2018-02-18T15:26:10.676Z,9.98
2018-02-18T15:28:38.246Z,7.25
2018-02-18T15:31:05.825Z,8.27
2018-02-18T15:33:34.166Z,9.93
2018-02-18T15:36:01.743Z,9.35
2018-02-18T15:38:29.323Z,11.48
2018-02-18T15:40:56.898Z,9.02
2018-02-18T15:43:25.247Z,11.45
2018-02-18T15:45:52.865Z,9.15
2018-02-18T15:48:20.442Z,5.93
2018-02-18T15:50:48.019Z,10.95
2018-02-18T15:53:15.595Z,10.98
2018-02-18T15:55:43.170Z,10.57
2018-02-18T15:58:10.743Z,8.75
2018-02-18T16:00:38.315Z,8.25
2018-02-18T16:03:05.934Z,12.88
2018-02-18T16:05:33.515Z,14.00
2018-02-18T16:08:01.100Z,14.70
2018-02-18T16:10:28.678Z,10.27
2018-02-18T16:12:56.258Z,10.82
2018-02-18T16:15:24.606Z,11.27
2018-02-18T16:17:52.189Z,11.05
2018-02-18T16:20:19.782Z,13.93
2018-02-18T16:22:48.134Z,24.92
2018-02-18T16:25:15.859Z,23.00
2018-02-18T16:27:43.443Z,25.52
2018-02-18T16:30:11.027Z,33.45
2018-02-18T16:32:38.613Z,32.58
2018-02-18T16:35:06.974Z,17.02
2018-02-18T16:37:34.555Z,19.33
2018-02-18T16:40:02.132Z,17.85
2018-02-18T16:42:30.480Z,14.60
2018-02-18T16:44:58.059Z,17.55
2018-02-18T16:47:25.682Z,13.90
2018-02-18T16:50:00.120Z,12.60
2018-02-18T16:52:27.703Z,8.88
2018-02-18T16:54:55.279Z,9.73
2018-02-18T16:57:22.859Z,11.43
2018-02-18T16:59:51.218Z,12.80
2018-02-18T17:02:18.795Z,8.98
2018-02-18T17:04:47.198Z,10.70
2018-02-18T17:07:14.792Z,14.25
2018-02-18T17:09:42.955Z,9.50
2018-02-18T17:12:10.535Z,6.97
2018-02-18T17:14:38.114Z,11.32
2018-02-18T17:17:05.682Z,6.32
2018-02-18T17:22:08.078Z,8.32
2018-02-18T17:24:35.663Z,10.07
2018-02-18T17:27:03.286Z,7.90
2018-02-18T17:29:30.871Z,16.85
2018-02-18T17:31:58.455Z,20.02
2018-02-18T17:34:26.078Z,11.05
2018-02-18T17:36:53.663Z,11.12
2018-02-18T17:39:21.241Z,9.50
2018-02-18T17:41:48.818Z,8.07
2018-02-18T17:44:16.439Z,9.13
2018-02-18T17:46:44.019Z,6.15
2018-02-18T17:49:11.642Z,9.55
2018-02-18T17:51:39.992Z,10.77
2018-02-18T17:54:07.587Z,10.20
2018-02-18T17:56:36.116Z,7.37
2018-02-18T17:59:03.695Z,9.52
2018-02-18T18:01:31.274Z,6.97
2018-02-18T18:03:58.864Z,11.27
2018-02-18T18:06:27.211Z,18.42
2018-02-18T18:08:54.993Z,11.32
2018-02-18T18:11:22.614Z,11.65
2018-02-18T18:13:50.203Z,13.73
2018-02-18T18:16:17.787Z,15.32
2018-02-18T18:18:45.371Z,13.62
2018-02-18T18:21:13.763Z,13.45
2018-02-18T18:23:41.463Z,13.25
2018-02-18T18:26:09.042Z,14.35
2018-02-18T18:28:36.622Z,21.12
2018-02-18T18:31:04.203Z,14.65
2018-02-18T18:33:32.594Z,11.68
2018-02-18T18:36:00.955Z,13.27
2018-02-18T18:38:28.580Z,16.10
2018-02-18T18:40:56.159Z,10.82
2018-02-18T18:43:23.786Z,9.52
2018-02-18T18:45:51.379Z,11.40
2018-02-18T18:48:18.963Z,16.55
2018-02-18T18:50:46.600Z,11.32
2018-02-18T18:53:14.183Z,10.88
2018-02-18T18:55:41.786Z,25.37
2018-02-18T18:58:09.424Z,27.80
2018-02-18T19:00:37.016Z,22.70
2018-02-18T19:03:04.607Z,21.52
2018-02-18T19:05:32.239Z,20.35
2018-02-18T19:07:59.831Z,27.40
2018-02-18T19:10:28.193Z,26.00
2018-02-18T19:12:55.785Z,29.15
2018-02-18T19:15:23.402Z,31.30
2018-02-18T19:17:50.992Z,20.95
2018-02-18T19:20:19.387Z,17.45
2018-02-18T19:22:47.734Z,19.50
2018-02-18T19:25:15.377Z,18.00
2018-02-18T19:27:42.959Z,15.55
2018-02-18T19:30:10.543Z,22.42
2018-02-18T19:32:38.123Z,18.73
2018-02-18T19:35:06.472Z,19.70
2018-02-18T19:37:34.828Z,24.17
2018-02-18T19:40:02.422Z,18.58
2018-02-18T19:42:30.023Z,19.75
2018-02-18T19:44:58.384Z,19.45
2018-02-18T19:47:25.974Z,19.85
2018-02-18T19:49:54.323Z,19.92
2018-02-18T19:52:21.954Z,22.50
2018-02-18T19:54:49.539Z,21.25
2018-02-18T19:57:17.135Z,17.92
2018-02-18T19:59:44.724Z,18.98
2018-02-18T20:02:12.299Z,19.40
2018-02-18T20:04:39.883Z,19.52
2018-02-18T20:07:07.471Z,21.35
2018-02-18T20:09:38.675Z,17.17
2018-02-18T20:12:06.359Z,17.15
2018-02-18T20:14:33.971Z,25.20
2018-02-18T20:17:01.561Z,18.85
2018-02-18T20:19:29.151Z,25.20
2018-02-18T20:21:56.770Z,23.33
2018-02-18T20:24:24.359Z,29.90
2018-02-18T20:26:51.971Z,20.33
2018-02-18T20:29:19.550Z,16.23
2018-02-18T20:31:47.138Z,16.95
2018-02-18T20:34:15.559Z,19.00
2018-02-18T20:36:43.191Z,19.60
2018-02-18T20:39:11.547Z,29.98
2018-02-18T20:41:39.136Z,20.20
2018-02-18T20:44:07.486Z,28.90
2018-02-18T20:46:35.119Z,26.33
2018-02-18T20:49:02.750Z,29.77
2018-02-18T20:51:30.339Z,34.10
2018-02-18T20:53:57.942Z,27.83
2018-02-18T20:56:25.531Z,31.45
2018-02-18T20:58:53.203Z,28.35
2018-02-18T21:01:21.550Z,30.25
2018-02-18T21:03:49.135Z,27.83
2018-02-18T21:06:16.718Z,29.20
2018-02-18T21:08:45.131Z,30.50
2018-02-18T21:11:12.719Z,34.92
2018-02-18T21:13:40.337Z,40.33
2018-02-18T21:16:08.691Z,41.60
2018-02-18T21:18:36.274Z,47.33
2018-02-18T21:21:04.618Z,48.63
2018-02-18T21:23:32.202Z,39.70
2018-02-18T21:25:59.793Z,46.88
2018-02-18T21:28:28.143Z,38.78
2018-02-18T21:30:55.787Z,34.55
2018-02-18T21:33:23.378Z,47.70
2018-02-18T21:35:50.962Z,41.20
2018-02-18T21:38:18.611Z,32.80
2018-02-18T21:40:46.199Z,31.45
2018-02-18T21:43:14.550Z,37.47
2018-02-18T21:45:42.135Z,36.70
2018-02-18T21:48:10.516Z,41.47
2018-02-18T21:50:38.105Z,35.22
2018-02-18T21:53:05.697Z,39.65
2018-02-18T21:55:33.299Z,44.75
2018-02-18T21:58:00.888Z,48.15
2018-02-18T22:00:29.267Z,44.20
2018-02-18T22:02:56.854Z,42.58
2018-02-18T22:05:24.443Z,35.63
2018-02-18T22:07:52.033Z,39.95
2018-02-18T22:10:19.623Z,38.00
2018-02-18T22:12:47.207Z,39.63
2018-02-18T22:15:15.563Z,39.15
2018-02-18T22:17:43.167Z,47.80
2018-02-18T22:20:10.761Z,41.78
2018-02-18T22:22:39.114Z,46.70
2018-02-18T22:25:06.704Z,51.33
2018-02-18T22:27:34.294Z,46.37
2018-02-18T22:30:01.887Z,50.03
2018-02-18T22:32:31.114Z,44.40
2018-02-18T22:34:58.702Z,42.10
2018-02-18T22:37:26.282Z,39.42
2018-02-18T22:39:53.863Z,37.60
2018-02-18T22:42:21.450Z,41.53
2018-02-18T22:44:49.803Z,36.28
2018-02-18T22:47:17.392Z,38.83
2018-02-18T22:49:45.743Z,36.60
2018-02-18T22:52:13.338Z,28.65
2018-02-18T22:54:41.686Z,35.80
2018-02-18T22:57:09.270Z,36.63
2018-02-18T22:59:36.854Z,41.50
2018-02-18T23:02:05.207Z,34.15
2018-02-18T23:04:32.799Z,35.42
2018-02-18T23:07:06.819Z,32.67
2018-02-18T23:09:35.354Z,27.45
2018-02-18T23:12:03.703Z,25.35
2018-02-18T23:14:31.331Z,26.77
2018-02-18T23:16:58.915Z,26.48
2018-02-18T23:19:27.268Z,24.40
2018-02-18T23:21:55.647Z,23.95
2018-02-18T23:24:23.235Z,30.73
2018-02-18T23:26:50.826Z,29.90
2018-02-18T23:29:18.463Z,32.88
2018-02-18T23:31:46.815Z,23.77
2018-02-18T23:34:14.400Z,23.35
2018-02-18T23:36:41.986Z,24.27
2018-02-18T23:39:09.573Z,24.63
2018-02-18T23:41:37.162Z,26.00
2018-02-18T23:44:04.754Z,29.02
2018-02-18T23:46:32.340Z,22.75
2018-02-18T23:49:00.727Z,27.13
2018-02-18T23:51:29.078Z,22.27
2018-02-18T23:53:56.662Z,22.40
2018-02-18T23:56:25.035Z,22.27
2018-02-18T23:58:52.622Z,17.05
